Time;durP1;ratioP1;P1;durP2;ratioP2;P2;SDS_P1;SDS_P2;PMS_P1;PMS_P2;Temp;Humidity;BMP_temperature;BMP_pressure;BME280_temperature;BME280_humidity;BME280_pressure;Samples;Min_cycle;Max_cycle;Signal;HPM_P1;HPM_P2
2023/10/29 00:01:26;;;;;;;4.60;4.40;;;;;;;11.74;100.00;98836.66;6013381;23;20343;-74
2023/10/29 00:03:54;;;;;;;5.20;5.00;;;;;;;11.46;100.00;98782.22;6018691;23;20085;-75
2023/10/29 00:06:21;;;;;;;4.72;4.45;;;;;;;11.84;100.00;98814.84;5988645;23;20019;-75
2023/10/29 00:08:48;;;;;;;4.88;4.68;;;;;;;12.14;100.00;98853.41;6017696;23;20035;-75
2023/10/29 00:11:14;;;;;;;4.95;4.75;;;;;;;12.14;100.00;98858.66;6017148;23;20015;-75
2023/10/29 00:13:41;;;;;;;4.57;4.38;;;;;;;12.14;100.00;98853.41;5991500;23;20640;-75
2023/10/29 00:16:07;;;;;;;5.90;5.60;;;;;;;12.30;100.00;98874.75;6017267;23;20023;-74
2023/10/29 00:18:33;;;;;;;4.93;4.50;;;;;;;11.92;100.00;98815.03;6011714;23;20594;-75
2023/10/29 00:21:00;;;;;;;4.80;4.60;;;;;;;10.87;100.00;98650.75;5992404;23;20046;-75
2023/10/29 00:23:26;;;;;;;4.40;4.20;;;;;;;12.21;100.00;98853.69;5998663;23;20184;-75
2023/10/29 00:25:53;;;;;;;5.47;5.28;;;;;;;11.55;100.00;98769.13;6008562;23;20019;-74
2023/10/29 00:28:19;;;;;;;5.95;4.78;;;;;;;12.33;100.00;98882.38;5992890;23;21840;-75
2023/10/29 00:30:46;;;;;;;4.70;4.50;;;;;;;11.81;100.00;98791.44;5987674;23;20059;-75
2023/10/29 00:33:12;;;;;;;5.38;4.85;;;;;;;11.32;100.00;98702.81;6022960;23;20035;-75
2023/10/29 00:35:38;;;;;;;4.65;4.45;;;;;;;12.45;100.00;98863.81;6022681;23;20129;-74
2023/10/29 00:38:05;;;;;;;6.30;6.00;;;;;;;12.41;100.00;98831.72;5996211;23;20022;-75
2023/10/29 00:40:31;;;;;;;6.45;4.57;;;;;;;12.39;100.00;98815.25;6022075;23;20315;-74
2023/10/29 00:42:58;;;;;;;5.03;4.63;;;;;;;12.31;100.00;98781.72;6013600;23;20269;-75
2023/10/29 00:45:25;;;;;;;4.70;4.50;;;;;;;12.21;100.00;98770.38;5997628;23;20033;-74
2023/10/29 00:47:51;;;;;;;5.30;5.05;;;;;;;11.58;100.00;98653.25;5995284;23;20480;-75
2023/10/29 00:50:18;;;;;;;4.80;4.60;;;;;;;12.10;100.00;98746.84;6019210;23;20050;-74
2023/10/29 00:52:45;;;;;;;4.70;4.50;;;;;;;12.40;100.00;98784.50;6019772;23;20077;-74
2023/10/29 00:55:12;;;;;;;4.50;4.30;;;;;;;12.23;100.00;98759.69;5994963;23;20031;-74
2023/10/29 00:57:38;;;;;;;5.32;4.95;;;;;;;12.05;100.00;98717.53;5995940;23;20184;-74
2023/10/29 01:00:06;;;;;;;6.25;5.95;;;;;;;12.59;100.00;98781.88;5981004;23;20023;-75
2023/10/29 01:02:37;;;;;;;4.70;4.50;;;;;;;12.22;100.00;98718.63;6005714;23;20154;-74
2023/10/29 01:05:04;;;;;;;4.50;4.30;;;;;;;12.29;100.00;98707.41;5995118;23;20058;-74
2023/10/29 01:07:32;;;;;;;4.57;4.38;;;;;;;12.41;100.00;98725.66;6016953;23;20025;-75
2023/10/29 01:09:59;;;;;;;5.95;5.65;;;;;;;12.13;100.00;98676.41;5992784;23;20067;-74
2023/10/29 01:12:27;;;;;;;4.82;4.55;;;;;;;11.90;100.00;98632.97;6018960;23;20051;-74
2023/10/29 01:14:54;;;;;;;4.78;4.50;;;;;;;12.28;100.00;98689.94;5997308;23;20585;-74
2023/10/29 01:17:21;;;;;;;4.88;4.68;;;;;;;12.62;100.00;98750.00;6024472;23;20205;-74
2023/10/29 01:19:47;;;;;;;5.28;4.97;;;;;;;12.62;100.00;98742.09;6019762;23;20019;-75
2023/10/29 01:22:14;;;;;;;5.18;4.53;;;;;;;12.63;100.00;98761.34;6020408;23;20092;-75
2023/10/29 01:24:40;;;;;;;4.53;4.32;;;;;;;12.49;100.00;98712.66;6017075;23;20051;-74
2023/10/29 01:27:07;;;;;;;4.50;4.30;;;;;;;12.62;100.00;98723.69;6019587;23;20030;-76
2023/10/29 01:29:34;;;;;;;4.82;4.63;;;;;;;11.17;100.00;98488.91;6022672;23;20038;-74
2023/10/29 01:32:01;;;;;;;5.80;5.55;;;;;;;12.69;100.00;98718.66;6014562;23;20099;-75
2023/10/29 01:34:27;;;;;;;4.60;4.40;;;;;;;12.54;100.00;98677.03;5998562;23;20372;-74
2023/10/29 01:36:54;;;;;;;5.00;4.70;;;;;;;12.58;100.00;98672.31;6017621;23;20203;-73
2023/10/29 01:39:20;;;;;;;7.25;5.10;;;;;;;12.77;100.00;98695.13;6025385;23;20034;-75
2023/10/29 01:41:46;;;;;;;5.63;4.90;;;;;;;12.40;100.00;98616.16;6021933;23;20026;-75
2023/10/29 01:44:13;;;;;;;4.40;4.20;;;;;;;12.27;100.00;98584.91;6015933;23;20058;-75
2023/10/29 01:46:40;;;;;;;5.07;4.72;;;;;;;12.72;100.00;98650.78;5995773;23;20022;-74
2023/10/29 01:49:09;;;;;;;5.75;5.35;;;;;;;12.85;100.00;98639.94;6016440;23;20068;-72
2023/10/29 01:51:36;;;;;;;4.80;4.60;;;;;;;12.84;100.00;98626.94;5995837;23;20094;-73
2023/10/29 01:54:03;;;;;;;6.70;6.32;;;;;;;12.84;100.00;98619.03;5994720;23;20267;-73
2023/10/29 01:56:29;;;;;;;5.05;4.70;;;;;;;12.86;100.00;98606.56;5992290;23;20027;-74
2023/10/29 01:58:57;;;;;;;5.47;5.18;;;;;;;12.85;100.00;98616.25;5999620;23;20099;-73
2023/10/29 02:01:24;;;;;;;5.20;4.90;;;;;;;12.40;100.00;98527.53;6014783;23;20100;-73
2023/10/29 02:03:50;;;;;;;5.28;4.88;;;;;;;12.78;100.00;98576.50;5990510;23;20048;-74
2023/10/29 02:06:18;;;;;;;4.40;4.20;;;;;;;12.86;100.00;98598.66;6015820;23;21501;-75
2023/10/29 02:08:45;;;;;;;4.93;4.63;;;;;;;12.42;100.00;98524.75;6021402;23;20038;-74
2023/10/29 02:11:11;;;;;;;6.75;5.00;;;;;;;12.82;100.00;98594.66;5990054;23;20587;-75
2023/10/29 02:13:38;;;;;;;5.05;4.75;;;;;;;12.41;100.00;98536.25;6016430;23;20026;-74
2023/10/29 02:16:05;;;;;;;6.75;6.07;;;;;;;12.08;100.00;98518.22;5991927;23;20481;-73
2023/10/29 02:18:31;;;;;;;4.95;4.68;;;;;;;12.78;100.00;98608.09;6017250;23;20034;-73
2023/10/29 02:20:58;;;;;;;5.53;5.13;;;;;;;12.14;100.00;98528.16;5999914;23;20026;-74
2023/10/29 02:23:24;;;;;;;5.03;4.72;;;;;;;12.20;100.00;98542.56;5995182;23;20218;-74
2023/10/29 02:25:51;;;;;;;5.40;5.18;;;;;;;12.61;100.00;98600.13;6012606;23;20081;-73
2023/10/29 02:28:17;;;;;;;4.85;4.55;;;;;;;12.34;100.00;98563.13;6020719;23;20773;-73
2023/10/29 02:30:43;;;;;;;5.47;5.18;;;;;;;12.71;100.00;98616.75;6014197;23;20508;-73
2023/10/29 02:33:10;;;;;;;4.70;4.50;;;;;;;12.44;100.00;98588.56;6017967;23;20406;-73
2023/10/29 02:35:36;;;;;;;4.75;4.55;;;;;;;12.72;100.00;98629.72;5969180;23;20038;-73
2023/10/29 02:38:03;;;;;;;6.50;6.10;;;;;;;12.21;100.00;98549.50;6010965;23;20038;-76
2023/10/29 02:40:29;;;;;;;5.25;4.95;;;;;;;11.79;100.00;98471.00;6002031;23;20043;-74
2023/10/29 02:42:56;;;;;;;5.25;4.88;;;;;;;12.32;100.00;98564.25;6016775;23;20059;-75
2023/10/29 02:45:23;;;;;;;4.78;4.57;;;;;;;12.44;100.00;98565.72;5998741;23;20693;-75
2023/10/29 02:47:49;;;;;;;5.10;4.85;;;;;;;12.71;100.00;98603.59;6019764;23;20053;-75
2023/10/29 02:50:16;;;;;;;4.93;4.68;;;;;;;12.46;100.00;98582.19;6016006;23;20203;-74
2023/10/29 02:52:42;;;;;;;5.15;4.85;;;;;;;12.22;100.00;98568.72;6017769;23;20055;-74
2023/10/29 02:55:08;;;;;;;4.97;4.78;;;;;;;12.66;100.00;98632.94;6014334;23;20033;-76
2023/10/29 02:57:35;;;;;;;4.47;4.28;;;;;;;12.20;100.00;98573.28;5994160;23;20091;-73
2023/10/29 03:00:04;;;;;;;6.28;5.97;;;;;;;11.04;100.00;98371.03;6010480;23;20034;-73
2023/10/29 03:02:30;;;;;;;4.70;4.50;;;;;;;12.63;100.00;98627.97;5998011;23;20023;-73
2023/10/29 03:04:57;;;;;;;4.70;4.50;;;;;;;12.56;100.00;98603.22;6021287;23;20414;-73
2023/10/29 03:07:24;;;;;;;4.70;4.50;;;;;;;12.32;100.00;98569.50;5988697;23;20036;-74
2023/10/29 03:09:50;;;;;;;5.25;4.95;;;;;;;12.60;100.00;98614.28;6017730;23;20110;-74
2023/10/29 03:12:17;;;;;;;4.80;4.60;;;;;;;12.23;100.00;98558.06;6008813;23;20031;-74
2023/10/29 03:14:43;;;;;;;4.70;4.50;;;;;;;12.59;100.00;98589.78;6020131;23;20100;-74
2023/10/29 03:17:09;;;;;;;4.60;4.40;;;;;;;12.18;100.00;98523.47;6000168;23;20122;-74
2023/10/29 03:19:36;;;;;;;5.18;4.78;;;;;;;12.10;100.00;98520.72;5994347;23;20031;-73
2023/10/29 03:22:04;;;;;;;6.03;5.72;;;;;;;12.53;100.00;98599.06;6018019;23;20197;-73
2023/10/29 03:24:31;;;;;;;4.75;4.50;;;;;;;12.53;100.00;98603.50;5979273;23;20473;-73
2023/10/29 03:26:57;;;;;;;5.07;4.88;;;;;;;12.51;100.00;98587.88;6014091;23;20007;-75
2023/10/29 03:29:23;;;;;;;4.47;4.28;;;;;;;12.40;100.00;98547.75;5993826;23;20321;-74
2023/10/29 03:31:50;;;;;;;5.22;4.93;;;;;;;12.31;100.00;98534.50;6011075;23;20208;-73
2023/10/29 03:34:17;;;;;;;4.40;4.20;;;;;;;12.50;100.00;98522.22;6019279;23;20200;-74
2023/10/29 03:36:44;;;;;;;4.47;4.28;;;;;;;12.64;100.00;98541.97;5990923;23;20027;-74
2023/10/29 03:39:10;;;;;;;4.63;4.43;;;;;;;12.78;100.00;98544.09;5992030;23;20536;-73
2023/10/29 03:41:37;;;;;;;4.88;4.68;;;;;;;12.45;100.00;98506.03;6017793;23;20601;-75
2023/10/29 03:44:03;;;;;;;6.13;5.82;;;;;;;12.54;100.00;98528.84;5962998;23;20462;-74
2023/10/29 03:46:30;;;;;;;5.40;5.00;;;;;;;12.69;100.00;98551.09;5990494;23;20504;-73
2023/10/29 03:48:56;;;;;;;5.10;4.80;;;;;;;12.85;100.00;98560.13;6012845;23;20042;-75
2023/10/29 03:51:28;;;;;;;6.85;4.40;;;;;;;12.87;100.00;98550.28;5991768;23;20020;-73
2023/10/29 03:53:55;;;;;;;5.80;5.53;;;;;;;12.85;100.00;98578.56;6015794;23;20031;-74
2023/10/29 03:56:21;;;;;;;4.63;4.43;;;;;;;12.75;100.00;98554.94;5991233;23;20029;-74
2023/10/29 03:58:48;;;;;;;5.32;5.03;;;;;;;12.73;100.00;98568.25;6021215;23;20034;-74
2023/10/29 04:01:15;;;;;;;4.47;4.28;;;;;;;12.57;100.00;98523.31;6012082;23;20433;-74
2023/10/29 04:03:43;;;;;;;5.10;4.80;;;;;;;12.54;100.00;98507.81;5992929;23;20438;-74
2023/10/29 04:06:11;;;;;;;5.05;4.85;;;;;;;12.81;100.00;98529.81;6011205;23;20164;-74
2023/10/29 04:08:38;;;;;;;4.60;4.40;;;;;;;12.80;100.00;98518.47;6002933;23;20092;-73
2023/10/29 04:11:05;;;;;;;4.60;4.40;;;;;;;12.35;100.00;98448.25;6019700;23;20035;-74
2023/10/29 04:13:32;;;;;;;4.70;4.50;;;;;;;12.82;100.00;98521.78;6015785;23;20022;-74
2023/10/29 04:15:58;;;;;;;7.05;6.65;;;;;;;12.49;100.00;98478.50;5988073;23;20026;-74
2023/10/29 04:18:27;;;;;;;4.65;4.45;;;;;;;11.92;100.00;98379.53;6013089;23;20106;-72
2023/10/29 04:20:54;;;;;;;4.80;4.60;;;;;;;12.51;100.00;98476.53;6019443;23;20406;-74
2023/10/29 04:23:22;;;;;;;4.60;4.40;;;;;;;12.25;100.00;98413.25;6017854;23;20125;-74
2023/10/29 04:25:49;;;;;;;4.78;4.38;;;;;;;12.56;100.00;98447.97;5990420;23;20229;-75
2023/10/29 04:28:15;;;;;;;4.80;4.60;;;;;;;12.74;100.00;98469.03;5994066;23;20030;-74
2023/10/29 04:30:42;;;;;;;4.70;4.50;;;;;;;12.71;100.00;98456.19;6014053;23;20949;-73
2023/10/29 04:33:08;;;;;;;5.07;4.65;;;;;;;13.16;100.00;98490.34;5991527;23;20051;-75
2023/10/29 04:35:35;;;;;;;4.75;4.55;;;;;;;12.78;100.00;98479.13;6001671;23;20082;-75
2023/10/29 04:38:02;;;;;;;5.95;5.65;;;;;;;13.13;100.00;98451.16;6026926;23;20089;-75
2023/10/29 04:40:28;;;;;;;4.60;4.40;;;;;;;13.02;100.00;98425.06;6018420;23;20047;-74
2023/10/29 04:42:54;;;;;;;4.90;4.70;;;;;;;12.87;100.00;98393.19;5985606;23;20027;-74
2023/10/29 04:45:21;;;;;;;4.60;4.40;;;;;;;12.71;100.00;98382.53;6019639;23;20031;-74
2023/10/29 04:47:50;;;;;;;4.80;4.60;;;;;;;12.69;100.00;98395.81;6015844;23;20053;-75
2023/10/29 04:50:20;;;;;;;6.75;4.60;;;;;;;12.69;100.00;98381.81;6011272;23;20023;-75
2023/10/29 04:52:48;;;;;;;4.75;4.55;;;;;;;13.13;100.00;98456.44;6017811;23;20134;-75
2023/10/29 04:55:15;;;;;;;4.43;4.22;;;;;;;13.30;100.00;98453.97;6013012;23;20019;-74
2023/10/29 04:57:41;;;;;;;4.68;4.47;;;;;;;13.40;100.00;98430.16;5994577;23;20111;-75
2023/10/29 05:00:09;;;;;;;5.85;5.40;;;;;;;12.73;100.00;98348.97;6010294;23;20408;-74
2023/10/29 05:02:38;;;;;;;4.97;4.45;;;;;;;13.28;100.00;98427.72;5996419;23;20023;-74
2023/10/29 05:05:06;;;;;;;5.30;5.00;;;;;;;13.25;100.00;98438.59;6018717;23;20026;-75
2023/10/29 05:07:33;;;;;;;4.60;4.40;;;;;;;13.08;100.00;98389.41;5987307;23;20023;-74
2023/10/29 05:09:59;;;;;;;6.22;5.93;;;;;;;13.36;100.00;98425.19;6011568;23;20328;-75
2023/10/29 05:12:26;;;;;;;4.60;4.40;;;;;;;13.38;100.00;98419.78;5986402;23;20062;-74
2023/10/29 05:14:52;;;;;;;7.18;4.93;;;;;;;13.30;100.00;98393.38;6016885;23;20022;-74
2023/10/29 05:17:19;;;;;;;4.90;4.70;;;;;;;12.43;100.00;98250.19;6017275;23;20250;-75
2023/10/29 05:19:45;;;;;;;4.70;4.50;;;;;;;13.41;100.00;98403.66;5990039;23;20261;-73
2023/10/29 05:22:12;;;;;;;4.65;4.45;;;;;;;12.91;100.00;98346.28;5994152;23;20031;-75
2023/10/29 05:24:38;;;;;;;4.60;4.40;;;;;;;13.08;100.00;98342.81;6017356;23;20037;-74
2023/10/29 05:27:05;;;;;;;4.90;4.70;;;;;;;13.48;100.00;98388.06;6021367;23;20047;-74
2023/10/29 05:29:32;;;;;;;5.40;5.10;;;;;;;13.29;100.00;98339.00;6024950;23;20050;-74
2023/10/29 05:31:59;;;;;;;5.97;5.68;;;;;;;13.50;100.00;98373.72;5961915;23;20024;-74
2023/10/29 05:34:25;;;;;;;5.00;4.50;;;;;;;12.55;100.00;98236.66;6020527;23;20042;-73
2023/10/29 05:36:52;;;;;;;4.82;4.63;;;;;;;13.50;100.00;98384.28;6016659;23;20025;-73
2023/10/29 05:39:18;;;;;;;4.60;4.40;;;;;;;13.55;100.00;98395.19;5997184;23;20245;-74
2023/10/29 05:41:45;;;;;;;4.97;4.78;;;;;;;13.53;100.00;98378.72;6019753;23;20035;-74
2023/10/29 05:44:11;;;;;;;4.60;4.40;;;;;;;13.17;100.00;98304.22;6018336;23;20070;-73
2023/10/29 05:46:39;;;;;;;5.15;4.75;;;;;;;13.24;100.00;98328.13;6022727;23;20058;-74
2023/10/29 05:49:05;;;;;;;5.43;4.93;;;;;;;13.02;100.00;98298.66;5986550;23;20331;-74
2023/10/29 05:51:32;;;;;;;5.13;4.63;;;;;;;13.21;100.00;98305.56;6020929;23;20045;-76
2023/10/29 05:53:58;;;;;;;6.32;6.03;;;;;;;13.39;100.00;98360.84;5996066;23;20481;-77
2023/10/29 05:56:25;;;;;;;4.85;4.65;;;;;;;13.17;100.00;98315.56;6020246;23;20042;-73
2023/10/29 05:58:51;;;;;;;4.88;4.68;;;;;;;13.04;100.00;98288.81;6023051;23;20386;-74
2023/10/29 06:01:17;;;;;;;5.05;4.65;;;;;;;13.32;100.00;98362.44;6018768;23;20027;-74
2023/10/29 06:03:44;;;;;;;9.77;4.70;;;;;;;13.31;100.00;98377.41;6022654;23;20091;-73
2023/10/29 06:06:10;;;;;;;4.95;4.75;;;;;;;13.34;100.00;98360.47;5991314;23;20489;-73
2023/10/29 06:08:37;;;;;;;4.70;4.50;;;;;;;13.30;100.00;98367.03;6016661;23;20430;-73
2023/10/29 06:11:04;;;;;;;5.10;4.90;;;;;;;13.26;100.00;98363.84;6021437;23;20443;-72
2023/10/29 06:13:32;;;;;;;4.63;4.43;;;;;;;13.15;100.00;98375.47;6025064;23;20066;-73
2023/10/29 06:15:59;;;;;;;5.78;5.50;;;;;;;12.58;100.00;98299.50;5989005;23;20047;-73
2023/10/29 06:18:25;;;;;;;8.93;4.63;;;;;;;13.13;100.00;98393.22;6024118;23;20047;-73
2023/10/29 06:20:52;;;;;;;5.00;4.70;;;;;;;12.41;100.00;98288.97;5986340;23;20637;-73
2023/10/29 06:23:20;;;;;;;4.75;4.45;;;;;;;12.91;100.00;98388.41;6024580;23;20030;-73
2023/10/29 06:25:46;;;;;;;5.00;4.60;;;;;;;12.97;100.00;98420.25;6018819;23;20038;-73
2023/10/29 06:28:13;;;;;;;5.03;4.72;;;;;;;12.98;100.00;98437.69;6020025;23;20042;-73
2023/10/29 06:30:40;;;;;;;4.90;4.70;;;;;;;12.88;100.00;98415.88;6013134;23;20109;-73
2023/10/29 06:33:06;;;;;;;4.95;4.75;;;;;;;12.89;100.00;98432.50;5994817;23;20318;-73
2023/10/29 06:35:33;;;;;;;4.70;4.50;;;;;;;12.96;100.00;98468.59;6024679;23;20042;-71
2023/10/29 06:37:59;;;;;;;6.22;5.93;;;;;;;12.97;100.00;98490.53;5996980;23;20213;-72
2023/10/29 06:40:26;;;;;;;4.55;4.35;;;;;;;12.92;100.00;98495.38;5993144;23;20019;-71
2023/10/29 06:42:52;;;;;;;5.15;4.88;;;;;;;12.87;100.00;98518.69;6017392;23;20026;-71
2023/10/29 06:45:19;;;;;;;4.75;4.53;;;;;;;12.85;100.00;98526.75;6015565;23;20423;-72
2023/10/29 06:47:46;;;;;;;4.80;4.60;;;;;;;12.87;100.00;98540.59;6019835;23;20529;-72
2023/10/29 06:50:13;;;;;;;4.70;4.50;;;;;;;12.65;100.00;98483.94;5988632;23;20092;-73
2023/10/29 06:52:39;;;;;;;4.50;4.30;;;;;;;12.62;100.00;98457.91;6017167;23;20411;-73
2023/10/29 06:55:08;;;;;;;5.03;4.82;;;;;;;12.91;100.00;98480.56;5994150;23;21544;-71
2023/10/29 06:57:36;;;;;;;4.50;4.30;;;;;;;12.36;100.00;98398.09;6009344;23;20433;-71
2023/10/29 07:00:03;;;;;;;6.65;6.00;;;;;;;12.62;100.00;98463.16;5982869;23;20027;-71
2023/10/29 07:02:31;;;;;;;4.85;4.65;;;;;;;12.91;100.00;98533.22;6010559;23;20026;-72
2023/10/29 07:04:58;;;;;;;4.90;4.60;;;;;;;12.91;100.00;98538.47;6019256;23;20203;-70
2023/10/29 07:07:29;;;;;;;4.60;4.40;;;;;;;12.47;100.00;98452.31;6021833;23;20033;-70
2023/10/29 07:09:56;;;;;;;6.40;5.97;;;;;;;11.90;100.00;98393.78;5995150;23;20035;-71
2023/10/29 07:12:23;;;;;;;4.80;4.60;;;;;;;12.90;100.00;98535.03;6019728;23;20030;-71
2023/10/29 07:14:49;;;;;;;4.55;4.35;;;;;;;12.88;100.00;98531.72;5989842;23;20073;-71
2023/10/29 07:17:16;;;;;;;4.57;4.38;;;;;;;12.87;100.00;98540.59;6019263;23;20031;-71
2023/10/29 07:19:42;;;;;;;4.85;4.60;;;;;;;12.85;100.00;98529.38;6016244;23;20038;-72
2023/10/29 07:22:09;;;;;;;5.15;4.95;;;;;;;12.76;100.00;98535.53;5985298;23;20240;-74
2023/10/29 07:24:36;;;;;;;4.70;4.50;;;;;;;12.70;100.00;98550.09;6017617;23;20067;-73
2023/10/29 07:27:02;;;;;;;5.20;4.90;;;;;;;12.56;100.00;98550.59;6016112;23;20057;-71
2023/10/29 07:29:29;;;;;;;4.75;4.55;;;;;;;12.61;100.00;98579.09;5996992;23;20019;-73
2023/10/29 07:31:56;;;;;;;6.22;5.93;;;;;;;12.57;100.00;98582.03;5984375;23;20388;-73
2023/10/29 07:34:22;;;;;;;4.95;4.65;;;;;;;12.54;100.00;98581.47;6019181;23;20065;-74
2023/10/29 07:36:49;;;;;;;5.15;4.85;;;;;;;12.10;100.00;98528.59;6017904;23;20356;-73
2023/10/29 07:39:15;;;;;;;5.05;4.75;;;;;;;12.40;100.00;98595.09;6014688;23;20383;-72
2023/10/29 07:41:42;;;;;;;4.55;4.35;;;;;;;12.28;100.00;98603.16;5990580;23;20022;-72
2023/10/29 07:44:08;;;;;;;5.32;5.13;;;;;;;12.08;100.00;98570.00;6010637;23;20545;-72
2023/10/29 07:46:35;;;;;;;4.75;4.55;;;;;;;11.89;100.00;98553.28;6002154;23;20344;-71
2023/10/29 07:49:02;;;;;;;8.90;5.22;;;;;;;12.27;100.00;98630.44;6012446;23;20034;-72
2023/10/29 07:51:29;;;;;;;5.15;4.70;;;;;;;12.33;100.00;98648.28;6003502;23;20021;-71
2023/10/29 07:53:55;;;;;;;6.28;5.97;;;;;;;12.37;100.00;98664.63;5988912;23;20139;-71
2023/10/29 07:56:25;;;;;;;4.95;4.68;;;;;;;11.81;100.00;98607.47;6006680;23;20061;-71
2023/10/29 07:58:52;;;;;;;4.70;4.50;;;;;;;11.72;100.00;98575.00;6018366;23;20104;-72
2023/10/29 08:01:19;;;;;;;4.97;4.57;;;;;;;11.90;100.00;98580.41;6019229;23;20031;-73
2023/10/29 08:03:46;;;;;;;5.00;4.70;;;;;;;12.35;100.00;98617.41;6000812;23;20022;-72
2023/10/29 08:06:13;;;;;;;4.82;4.60;;;;;;;12.40;100.00;98603.00;6011521;23;20023;-74
2023/10/29 08:08:40;;;;;;;4.85;4.65;;;;;;;12.81;100.00;98656.16;5994796;23;20446;-71
2023/10/29 08:11:07;;;;;;;4.80;4.60;;;;;;;12.83;100.00;98670.00;6018938;23;20139;-70
2023/10/29 08:13:33;;;;;;;4.97;4.68;;;;;;;12.93;100.00;98639.22;6017404;23;20368;-71
2023/10/29 08:16:02;;;;;;;7.05;6.43;;;;;;;12.60;100.00;98559.84;5982771;23;20408;-71
2023/10/29 08:18:29;;;;;;;4.72;4.47;;;;;;;12.98;100.00;98582.50;6018094;23;20554;-72
2023/10/29 08:20:56;;;;;;;4.85;4.65;;;;;;;12.83;100.00;98533.13;5987236;23;20450;-71
2023/10/29 08:23:24;;;;;;;4.72;4.45;;;;;;;13.14;100.00;98588.94;6020387;23;20015;-72
2023/10/29 08:25:51;;;;;;;5.50;5.00;;;;;;;13.01;100.00;98557.69;5984499;23;20077;-72
2023/10/29 08:28:18;;;;;;;4.80;4.60;;;;;;;12.78;100.00;98491.47;6018565;23;20106;-71
2023/10/29 08:30:48;;;;;;;5.07;4.68;;;;;;;13.36;100.00;98545.56;6015289;23;20286;-71
2023/10/29 08:33:15;;;;;;;5.10;4.90;;;;;;;13.18;100.00;98469.97;5966964;23;20039;-71
2023/10/29 08:35:44;;;;;;;4.85;4.65;;;;;;;13.39;100.00;98505.75;6019715;23;20019;-71
2023/10/29 08:38:11;;;;;;;5.30;4.80;;;;;;;13.74;100.00;98514.56;5984473;23;20082;-72
2023/10/29 08:40:37;;;;;;;5.05;4.85;;;;;;;13.77;100.00;98511.59;6019809;23;20047;-72
2023/10/29 08:43:05;;;;;;;5.07;4.88;;;;;;;13.87;100.00;98512.34;5988170;23;20109;-71
2023/10/29 08:45:31;;;;;;;4.70;4.50;;;;;;;13.92;100.00;98515.34;5990544;23;20023;-72
2023/10/29 08:54:32;;;;;;;5.00;4.70;;;;;;;13.85;100.00;98466.88;6020735;23;20065;-71
2023/10/29 08:56:58;;;;;;;5.68;5.15;;;;;;;14.22;100.00;98536.13;6000859;23;20038;-72
2023/10/29 08:59:25;;;;;;;5.10;4.57;;;;;;;13.80;100.00;98457.75;6024418;23;20035;-72
2023/10/29 09:01:53;;;;;;;5.00;4.80;;;;;;;14.28;100.00;98522.31;5971784;23;20039;-71
2023/10/29 09:04:20;;;;;;;4.70;4.50;;;;;;;14.28;100.00;98507.31;6028155;23;20031;-71
2023/10/29 09:06:47;;;;;;;4.82;4.63;;;;;;;14.29;100.00;98516.03;5997357;23;20023;-71
2023/10/29 09:09:13;;;;;;;5.03;4.70;;;;;;;14.12;100.00;98517.78;6020681;23;20018;-73
2023/10/29 09:11:43;;;;;;;5.20;4.60;;;;;;;14.09;100.00;98533.91;5970556;23;20047;-73
2023/10/29 09:14:11;;;;;;;5.10;4.90;;;;;;;14.25;100.00;98568.31;6025552;23;20018;-72
2023/10/29 09:16:37;;;;;;;4.82;4.50;;;;;;;14.23;100.00;98558.88;6001704;23;20105;-73
2023/10/29 09:19:04;;;;;;;5.00;4.70;;;;;;;14.17;100.00;98552.41;6027836;23;20074;-73
2023/10/29 09:21:30;;;;;;;4.68;4.47;;;;;;;14.33;100.00;98580.69;6004693;23;20095;-72
2023/10/29 09:23:56;;;;;;;6.00;5.60;;;;;;;14.26;100.00;98588.41;6038939;23;20016;-73
2023/10/29 09:26:23;;;;;;;5.00;4.70;;;;;;;13.29;100.00;98439.09;6001379;23;20228;-73
2023/10/29 09:28:50;;;;;;;4.80;4.60;;;;;;;14.03;100.00;98571.44;6032210;23;20029;-73
2023/10/29 09:31:20;;;;;;;4.90;4.70;;;;;;;14.32;100.00;98597.53;6003440;23;20202;-73
2023/10/29 09:33:47;;;;;;;5.28;5.07;;;;;;;14.31;100.00;98594.06;5995361;23;20028;-74
2023/10/29 09:36:13;;;;;;;4.97;4.78;;;;;;;14.39;100.00;98618.84;6030511;23;20061;-73
2023/10/29 09:38:42;;;;;;;4.80;4.60;;;;;;;14.39;100.00;98568.69;6002090;23;20031;-73
2023/10/29 09:41:08;;;;;;;5.15;4.85;;;;;;;13.81;100.00;98431.25;6001417;23;20038;-73
2023/10/29 09:43:42;;;;;;;4.80;4.60;;;;;;;13.61;100.00;98380.56;6009442;23;20019;-73
2023/10/29 09:46:10;;;;;;;5.40;5.20;;;;;;;14.46;100.00;98520.41;5986252;23;20035;-73
2023/10/29 09:48:38;;;;;;;5.43;5.03;;;;;;;14.50;100.00;98528.84;6003536;23;20031;-72
2023/10/29 09:51:06;;;;;;;5.50;5.10;;;;;;;14.48;100.00;98557.22;5991074;23;20089;-72
2023/10/29 09:53:37;;;;;;;4.82;4.63;;;;;;;14.44;100.00;98540.84;5997173;23;20090;-73
2023/10/29 09:56:08;;;;;;;5.90;5.60;;;;;;;14.65;100.00;98543.09;5989806;23;20717;-73
2023/10/29 09:58:35;;;;;;;5.00;4.70;;;;;;;14.91;100.00;98550.13;6021480;23;20019;-73
2023/10/29 10:01:04;;;;;;;5.20;4.90;;;;;;;14.64;100.00;98420.03;5995498;23;20391;-74
2023/10/29 10:03:31;;;;;;;5.18;4.97;;;;;;;15.14;97.96;98424.38;5994975;23;20641;-73
2023/10/29 10:05:58;;;;;;;6.25;5.95;;;;;;;15.66;97.64;98480.53;6018662;23;20110;-73
2023/10/29 10:08:27;;;;;;;5.20;4.90;;;;;;;15.55;91.62;98323.91;6024098;23;20023;-73
2023/10/29 10:10:55;;;;;;;5.40;5.10;;;;;;;15.40;91.53;98296.50;5995098;23;20099;-75
2023/10/29 10:13:41;;;;;;;5.05;4.85;;;;;;;15.54;90.65;98308.19;5999532;23;20092;-73
2023/10/29 10:16:10;;;;;;;5.63;5.22;;;;;;;15.19;88.96;98232.81;6008273;23;20239;-74
2023/10/29 10:18:55;;;;;;;5.00;4.80;;;;;;;14.73;90.47;98217.56;5999152;23;20023;-73
2023/10/29 10:21:24;;;;;;;5.28;4.97;;;;;;;14.46;89.35;98168.59;5992796;23;20410;-74
2023/10/29 10:23:54;;;;;;;5.57;5.28;;;;;;;15.26;87.59;98239.09;6020682;23;20237;-72
2023/10/29 10:26:34;;;;;;;5.22;4.93;;;;;;;15.67;87.64;98303.19;5995142;23;20047;-74
2023/10/29 10:29:02;;;;;;;5.20;5.00;;;;;;;15.57;87.69;98281.41;5965637;23;20058;-74
2023/10/29 10:31:35;;;;;;;5.82;5.53;;;;;;;15.78;86.28;98267.66;6011553;23;20026;-74
2023/10/29 10:34:17;;;;;;;6.30;6.00;;;;;;;15.67;87.45;98303.19;5967264;23;20011;-74
2023/10/29 10:36:45;;;;;;;5.70;5.40;;;;;;;15.93;86.38;98302.91;6011310;23;21189;-74
2023/10/29 10:39:12;;;;;;;5.97;5.50;;;;;;;16.40;85.22;98319.69;5985972;23;20708;-75
2023/10/29 10:41:43;;;;;;;5.38;5.03;;;;;;;16.08;83.28;98213.06;6021838;23;20096;-72
2023/10/29 10:44:12;;;;;;;5.80;5.30;;;;;;;16.03;82.09;98146.63;5972510;23;20106;-73
2023/10/29 10:47:00;;;;;;;6.07;4.95;;;;;;;16.53;82.17;98252.91;6006574;23;20060;-73
2023/10/29 10:49:30;;;;;;;4.97;4.78;;;;;;;16.14;81.92;98193.03;5989631;23;20603;-74
2023/10/29 10:52:01;;;;;;;6.03;5.72;;;;;;;15.62;83.07;98213.00;6011893;23;20152;-73
2023/10/29 10:54:29;;;;;;;5.30;5.00;;;;;;;14.94;83.66;98145.75;5992052;23;20019;-73
2023/10/29 10:56:56;;;;;;;5.28;5.07;;;;;;;15.63;83.99;98270.16;6015262;23;20014;-75
2023/10/29 10:59:32;;;;;;;5.68;5.28;;;;;;;14.10;84.51;98064.28;5973486;23;20027;-73
2023/10/29 11:01:59;;;;;;;7.22;6.55;;;;;;;15.50;87.14;98373.78;6016763;23;20027;-72
2023/10/29 11:04:28;;;;;;;5.40;5.10;;;;;;;15.38;87.05;98355.81;5991339;23;20031;-72
2023/10/29 11:06:55;;;;;;;5.05;4.85;;;;;;;15.54;87.04;98385.69;6018020;23;20068;-74
2023/10/29 11:09:23;;;;;;;5.30;4.85;;;;;;;15.78;89.01;98460.69;5987637;23;20063;-74
2023/10/29 11:11:56;;;;;;;5.78;5.03;;;;;;;15.89;86.28;98367.75;6020220;23;20033;-72
2023/10/29 11:14:30;;;;;;;5.18;4.97;;;;;;;16.50;86.04;98444.72;5972773;23;20077;-72
2023/10/29 11:16:59;;;;;;;5.40;5.20;;;;;;;16.52;83.79;98354.53;6019637;23;20030;-72
2023/10/29 11:19:46;;;;;;;5.15;4.95;;;;;;;16.66;81.90;98322.00;5969956;23;20027;-73
2023/10/29 11:22:27;;;;;;;5.13;4.90;;;;;;;16.85;81.59;98346.38;6010835;23;20093;-73
2023/10/29 11:25:08;;;;;;;5.70;5.40;;;;;;;16.86;81.76;98358.63;5992938;23;20047;-73
2023/10/29 11:27:39;;;;;;;5.35;5.05;;;;;;;16.50;80.84;98267.34;6017509;23;20034;-74
2023/10/29 11:30:22;;;;;;;6.85;6.50;;;;;;;16.20;82.10;98300.81;5986421;23;20022;-73
2023/10/29 11:33:10;;;;;;;5.32;5.03;;;;;;;16.27;84.30;98404.13;6017324;23;20525;-73
2023/10/29 11:35:37;;;;;;;5.43;5.13;;;;;;;16.13;84.56;98400.41;5993552;23;20094;-72